sensor_id;sensor_type;location;lat;lon;timestamp;P1;durP1;ratioP1;P2;durP2;ratioP2
568;SDS011;269;48.884;9.192;2023-04-03T00:01:52;2.60;;;2.40;;
568;SDS011;269;48.884;9.192;2023-04-03T00:04:19;3.95;;;2.60;;
568;SDS011;269;48.884;9.192;2023-04-03T00:06:46;3.40;;;2.58;;
568;SDS011;269;48.884;9.192;2023-04-03T00:09:13;2.95;;;2.65;;
568;SDS011;269;48.884;9.192;2023-04-03T00:11:40;2.80;;;2.60;;
568;SDS011;269;48.884;9.192;2023-04-03T00:14:07;2.70;;;2.50;;
568;SDS011;269;48.884;9.192;2023-04-03T00:16:34;3.00;;;2.80;;
568;SDS011;269;48.884;9.192;2023-04-03T00:19:03;3.10;;;2.47;;
568;SDS011;269;48.884;9.192;2023-04-03T00:21:30;2.83;;;2.47;;
568;SDS011;269;48.884;9.192;2023-04-03T00:23:57;2.97;;;2.72;;
568;SDS011;269;48.884;9.192;2023-04-03T00:26:24;3.03;;;2.72;;
568;SDS011;269;48.884;9.192;2023-04-03T00:28:51;2.80;;;2.60;;
568;SDS011;269;48.884;9.192;2023-04-03T00:31:18;3.28;;;2.83;;
568;SDS011;269;48.884;9.192;2023-04-03T00:33:46;2.80;;;2.60;;
568;SDS011;269;48.884;9.192;2023-04-03T00:36:14;2.85;;;2.65;;
568;SDS011;269;48.884;9.192;2023-04-03T00:38:41;2.85;;;2.55;;
568;SDS011;269;48.884;9.192;2023-04-03T00:41:08;2.75;;;2.55;;
568;SDS011;269;48.884;9.192;2023-04-03T00:43:36;2.97;;;2.65;;
568;SDS011;269;48.884;9.192;2023-04-03T00:46:03;2.33;;;2.13;;
568;SDS011;269;48.884;9.192;2023-04-03T00:48:31;2.83;;;2.63;;
568;SDS011;269;48.884;9.192;2023-04-03T00:51:01;2.92;;;2.60;;
568;SDS011;269;48.884;9.192;2023-04-03T00:53:32;3.03;;;2.72;;
568;SDS011;269;48.884;9.192;2023-04-03T00:56:05;3.03;;;2.72;;
568;SDS011;269;48.884;9.192;2023-04-03T00:58:37;3.50;;;2.70;;
568;SDS011;269;48.884;9.192;2023-04-03T01:01:07;2.78;;;2.58;;
568;SDS011;269;48.884;9.192;2023-04-03T01:03:38;3.88;;;2.45;;
568;SDS011;269;48.884;9.192;2023-04-03T01:06:05;4.50;;;3.03;;
568;SDS011;269;48.884;9.192;2023-04-03T01:08:34;2.90;;;2.70;;
568;SDS011;269;48.884;9.192;2023-04-03T01:11:01;2.83;;;2.63;;
568;SDS011;269;48.884;9.192;2023-04-03T01:13:30;3.17;;;2.90;;
568;SDS011;269;48.884;9.192;2023-04-03T01:16:00;2.85;;;2.65;;
568;SDS011;269;48.884;9.192;2023-04-03T01:18:28;3.00;;;2.70;;
568;SDS011;269;48.884;9.192;2023-04-03T01:24:00;3.53;;;2.50;;
568;SDS011;269;48.884;9.192;2023-04-03T01:26:36;2.67;;;2.47;;
568;SDS011;269;48.884;9.192;2023-04-03T01:29:03;2.72;;;2.53;;
568;SDS011;269;48.884;9.192;2023-04-03T01:31:31;3.85;;;2.75;;
568;SDS011;269;48.884;9.192;2023-04-03T01:34:16;2.80;;;2.60;;
568;SDS011;269;48.884;9.192;2023-04-03T01:36:43;3.08;;;2.88;;
568;SDS011;269;48.884;9.192;2023-04-03T01:39:10;3.72;;;3.42;;
568;SDS011;269;48.884;9.192;2023-04-03T01:41:38;2.92;;;2.60;;
568;SDS011;269;48.884;9.192;2023-04-03T01:44:05;4.55;;;3.22;;
568;SDS011;269;48.884;9.192;2023-04-03T01:46:32;2.90;;;2.63;;
568;SDS011;269;48.884;9.192;2023-04-03T01:49:01;3.30;;;3.00;;
568;SDS011;269;48.884;9.192;2023-04-03T01:51:28;3.03;;;2.83;;
568;SDS011;269;48.884;9.192;2023-04-03T01:53:55;3.20;;;3.00;;
568;SDS011;269;48.884;9.192;2023-04-03T01:56:23;4.90;;;3.13;;
568;SDS011;269;48.884;9.192;2023-04-03T01:58:50;2.88;;;2.67;;
568;SDS011;269;48.884;9.192;2023-04-03T02:01:17;3.30;;;3.00;;
568;SDS011;269;48.884;9.192;2023-04-03T02:03:45;3.33;;;3.03;;
568;SDS011;269;48.884;9.192;2023-04-03T02:06:13;3.50;;;3.20;;
568;SDS011;269;48.884;9.192;2023-04-03T02:08:40;4.80;;;2.90;;
568;SDS011;269;48.884;9.192;2023-04-03T02:11:07;3.92;;;3.20;;
568;SDS011;269;48.884;9.192;2023-04-03T02:13:34;3.13;;;2.90;;
568;SDS011;269;48.884;9.192;2023-04-03T02:16:05;4.85;;;2.58;;
568;SDS011;269;48.884;9.192;2023-04-03T02:18:34;2.97;;;2.78;;
568;SDS011;269;48.884;9.192;2023-04-03T02:21:01;3.10;;;2.70;;
568;SDS011;269;48.884;9.192;2023-04-03T02:23:29;3.42;;;3.00;;
568;SDS011;269;48.884;9.192;2023-04-03T02:26:02;3.45;;;2.75;;
568;SDS011;269;48.884;9.192;2023-04-03T02:28:31;2.60;;;2.40;;
568;SDS011;269;48.884;9.192;2023-04-03T02:30:58;3.28;;;2.97;;
568;SDS011;269;48.884;9.192;2023-04-03T02:33:25;3.10;;;2.30;;
568;SDS011;269;48.884;9.192;2023-04-03T02:35:53;3.80;;;2.55;;
568;SDS011;269;48.884;9.192;2023-04-03T02:38:20;2.92;;;2.70;;
568;SDS011;269;48.884;9.192;2023-04-03T02:40:49;2.85;;;2.65;;
568;SDS011;269;48.884;9.192;2023-04-03T02:43:17;3.67;;;2.33;;
568;SDS011;269;48.884;9.192;2023-04-03T02:45:44;3.67;;;2.80;;
568;SDS011;269;48.884;9.192;2023-04-03T02:48:11;3.25;;;2.60;;
568;SDS011;269;48.884;9.192;2023-04-03T02:50:39;2.60;;;2.40;;
568;SDS011;269;48.884;9.192;2023-04-03T02:53:07;2.45;;;2.25;;
568;SDS011;269;48.884;9.192;2023-04-03T02:55:35;2.63;;;2.40;;
568;SDS011;269;48.884;9.192;2023-04-03T02:58:03;3.00;;;2.70;;
568;SDS011;269;48.884;9.192;2023-04-03T03:00:30;2.30;;;2.10;;
568;SDS011;269;48.884;9.192;2023-04-03T03:02:57;2.75;;;2.20;;
568;SDS011;269;48.884;9.192;2023-04-03T03:05:25;2.10;;;2.00;;
568;SDS011;269;48.884;9.192;2023-04-03T03:07:53;2.25;;;2.05;;
568;SDS011;269;48.884;9.192;2023-04-03T03:10:20;2.55;;;2.30;;
568;SDS011;269;48.884;9.192;2023-04-03T03:12:47;2.47;;;2.28;;
568;SDS011;269;48.884;9.192;2023-04-03T03:15:16;2.70;;;2.50;;
568;SDS011;269;48.884;9.192;2023-04-03T03:17:44;3.22;;;2.63;;
568;SDS011;269;48.884;9.192;2023-04-03T03:20:12;3.40;;;2.60;;
568;SDS011;269;48.884;9.192;2023-04-03T03:22:40;4.95;;;2.40;;
568;SDS011;269;48.884;9.192;2023-04-03T03:25:08;2.97;;;2.55;;
568;SDS011;269;48.884;9.192;2023-04-03T03:27:35;2.88;;;2.10;;
568;SDS011;269;48.884;9.192;2023-04-03T03:30:03;2.42;;;2.20;;
568;SDS011;269;48.884;9.192;2023-04-03T03:32:32;3.15;;;2.95;;
568;SDS011;269;48.884;9.192;2023-04-03T03:34:59;3.00;;;2.80;;
568;SDS011;269;48.884;9.192;2023-04-03T03:37:26;3.40;;;2.88;;
568;SDS011;269;48.884;9.192;2023-04-03T03:39:54;3.50;;;2.80;;
568;SDS011;269;48.884;9.192;2023-04-03T03:42:20;2.70;;;2.50;;
568;SDS011;269;48.884;9.192;2023-04-03T03:44:48;2.55;;;2.00;;
568;SDS011;269;48.884;9.192;2023-04-03T03:47:15;2.95;;;2.58;;
568;SDS011;269;48.884;9.192;2023-04-03T03:49:43;2.60;;;2.40;;
568;SDS011;269;48.884;9.192;2023-04-03T03:52:10;2.70;;;2.50;;
568;SDS011;269;48.884;9.192;2023-04-03T03:54:37;2.75;;;2.35;;
568;SDS011;269;48.884;9.192;2023-04-03T03:57:04;2.40;;;2.20;;
568;SDS011;269;48.884;9.192;2023-04-03T03:59:31;2.90;;;2.60;;
568;SDS011;269;48.884;9.192;2023-04-03T04:01:59;2.50;;;2.30;;
568;SDS011;269;48.884;9.192;2023-04-03T04:04:26;2.70;;;2.50;;
568;SDS011;269;48.884;9.192;2023-04-03T04:06:55;3.08;;;2.80;;
568;SDS011;269;48.884;9.192;2023-04-03T04:09:22;2.72;;;2.53;;
568;SDS011;269;48.884;9.192;2023-04-03T04:11:49;3.35;;;3.05;;
568;SDS011;269;48.884;9.192;2023-04-03T04:14:16;2.80;;;2.60;;
568;SDS011;269;48.884;9.192;2023-04-03T04:16:43;2.95;;;2.75;;
568;SDS011;269;48.884;9.192;2023-04-03T04:19:10;2.83;;;2.63;;
568;SDS011;269;48.884;9.192;2023-04-03T04:21:37;2.70;;;2.50;;
568;SDS011;269;48.884;9.192;2023-04-03T04:24:08;2.95;;;2.20;;
568;SDS011;269;48.884;9.192;2023-04-03T04:26:35;2.85;;;2.65;;
568;SDS011;269;48.884;9.192;2023-04-03T04:29:02;2.95;;;2.55;;
568;SDS011;269;48.884;9.192;2023-04-03T04:31:30;3.10;;;2.58;;
568;SDS011;269;48.884;9.192;2023-04-03T04:33:56;3.72;;;2.30;;
568;SDS011;269;48.884;9.192;2023-04-03T04:36:24;2.65;;;2.10;;
568;SDS011;269;48.884;9.192;2023-04-03T04:38:51;2.60;;;2.40;;
568;SDS011;269;48.884;9.192;2023-04-03T04:41:20;2.80;;;2.60;;
568;SDS011;269;48.884;9.192;2023-04-03T04:43:48;2.75;;;2.40;;
568;SDS011;269;48.884;9.192;2023-04-03T04:46:15;3.00;;;2.80;;
568;SDS011;269;48.884;9.192;2023-04-03T04:48:43;2.83;;;2.63;;
568;SDS011;269;48.884;9.192;2023-04-03T04:51:10;3.20;;;2.88;;
568;SDS011;269;48.884;9.192;2023-04-03T04:53:38;2.70;;;2.50;;
568;SDS011;269;48.884;9.192;2023-04-03T04:56:05;2.50;;;2.30;;
568;SDS011;269;48.884;9.192;2023-04-03T04:58:34;3.38;;;2.38;;
568;SDS011;269;48.884;9.192;2023-04-03T05:01:01;3.10;;;2.90;;
568;SDS011;269;48.884;9.192;2023-04-03T05:03:29;6.20;;;3.15;;
568;SDS011;269;48.884;9.192;2023-04-03T05:05:56;4.32;;;2.88;;
568;SDS011;269;48.884;9.192;2023-04-03T05:08:23;3.45;;;3.15;;
568;SDS011;269;48.884;9.192;2023-04-03T05:10:50;3.22;;;2.92;;
568;SDS011;269;48.884;9.192;2023-04-03T05:13:18;3.13;;;2.92;;
568;SDS011;269;48.884;9.192;2023-04-03T05:15:47;2.85;;;2.65;;
568;SDS011;269;48.884;9.192;2023-04-03T05:18:14;4.13;;;3.83;;
568;SDS011;269;48.884;9.192;2023-04-03T05:20:41;4.40;;;3.60;;
568;SDS011;269;48.884;9.192;2023-04-03T05:23:08;3.33;;;3.03;;
568;SDS011;269;48.884;9.192;2023-04-03T05:25:36;3.35;;;3.15;;
568;SDS011;269;48.884;9.192;2023-04-03T05:28:04;2.70;;;2.50;;
568;SDS011;269;48.884;9.192;2023-04-03T05:30:31;3.10;;;2.90;;
568;SDS011;269;48.884;9.192;2023-04-03T05:33:00;3.13;;;2.83;;
568;SDS011;269;48.884;9.192;2023-04-03T05:35:27;3.20;;;3.00;;
568;SDS011;269;48.884;9.192;2023-04-03T05:37:54;4.25;;;3.38;;
568;SDS011;269;48.884;9.192;2023-04-03T05:40:21;2.90;;;2.70;;
568;SDS011;269;48.884;9.192;2023-04-03T05:42:48;3.83;;;3.50;;
568;SDS011;269;48.884;9.192;2023-04-03T05:45:15;3.25;;;2.45;;
568;SDS011;269;48.884;9.192;2023-04-03T05:47:42;2.92;;;2.70;;
568;SDS011;269;48.884;9.192;2023-04-03T05:50:11;2.88;;;2.63;;
568;SDS011;269;48.884;9.192;2023-04-03T05:52:40;4.40;;;3.33;;
568;SDS011;269;48.884;9.192;2023-04-03T05:55:10;3.00;;;2.80;;
568;SDS011;269;48.884;9.192;2023-04-03T05:57:37;3.13;;;2.72;;
568;SDS011;269;48.884;9.192;2023-04-03T06:00:05;3.58;;;2.42;;
568;SDS011;269;48.884;9.192;2023-04-03T06:02:35;4.18;;;2.85;;
568;SDS011;269;48.884;9.192;2023-04-03T06:05:02;3.97;;;2.92;;
568;SDS011;269;48.884;9.192;2023-04-03T06:07:32;4.50;;;2.97;;
568;SDS011;269;48.884;9.192;2023-04-03T06:09:59;4.30;;;3.10;;
568;SDS011;269;48.884;9.192;2023-04-03T06:12:26;4.25;;;2.80;;
568;SDS011;269;48.884;9.192;2023-04-03T06:14:55;2.97;;;2.45;;
568;SDS011;269;48.884;9.192;2023-04-03T06:17:22;3.35;;;3.05;;
568;SDS011;269;48.884;9.192;2023-04-03T06:19:49;3.92;;;2.88;;
568;SDS011;269;48.884;9.192;2023-04-03T06:22:16;3.00;;;2.80;;
568;SDS011;269;48.884;9.192;2023-04-03T06:24:45;4.85;;;4.45;;
568;SDS011;269;48.884;9.192;2023-04-03T06:27:12;5.20;;;4.80;;
568;SDS011;269;48.884;9.192;2023-04-03T06:29:40;8.40;;;7.80;;
568;SDS011;269;48.884;9.192;2023-04-03T06:32:07;3.22;;;2.90;;
568;SDS011;269;48.884;9.192;2023-04-03T06:34:34;3.42;;;3.20;;
568;SDS011;269;48.884;9.192;2023-04-03T06:37:01;4.00;;;3.70;;
568;SDS011;269;48.884;9.192;2023-04-03T06:39:28;3.00;;;2.75;;
568;SDS011;269;48.884;9.192;2023-04-03T06:41:56;3.42;;;3.13;;
568;SDS011;269;48.884;9.192;2023-04-03T06:44:23;4.90;;;3.20;;
568;SDS011;269;48.884;9.192;2023-04-03T06:46:51;3.38;;;3.08;;
568;SDS011;269;48.884;9.192;2023-04-03T06:49:19;5.07;;;2.95;;
568;SDS011;269;48.884;9.192;2023-04-03T06:51:46;3.83;;;3.47;;
568;SDS011;269;48.884;9.192;2023-04-03T06:54:14;2.97;;;2.72;;
568;SDS011;269;48.884;9.192;2023-04-03T06:56:41;2.85;;;2.65;;
568;SDS011;269;48.884;9.192;2023-04-03T06:59:09;3.25;;;2.95;;
568;SDS011;269;48.884;9.192;2023-04-03T07:01:38;3.53;;;3.10;;
568;SDS011;269;48.884;9.192;2023-04-03T07:04:06;3.05;;;2.75;;
568;SDS011;269;48.884;9.192;2023-04-03T07:06:33;3.30;;;3.00;;
568;SDS011;269;48.884;9.192;2023-04-03T07:09:00;3.08;;;2.88;;
568;SDS011;269;48.884;9.192;2023-04-03T07:11:28;4.93;;;2.80;;
568;SDS011;269;48.884;9.192;2023-04-03T07:13:55;2.83;;;2.63;;
568;SDS011;269;48.884;9.192;2023-04-03T07:16:24;3.28;;;2.97;;
568;SDS011;269;48.884;9.192;2023-04-03T07:18:51;3.40;;;2.80;;
568;SDS011;269;48.884;9.192;2023-04-03T07:21:19;3.75;;;2.75;;
568;SDS011;269;48.884;9.192;2023-04-03T07:23:46;3.90;;;3.10;;
568;SDS011;269;48.884;9.192;2023-04-03T07:26:13;3.03;;;2.70;;
568;SDS011;269;48.884;9.192;2023-04-03T07:28:40;3.90;;;3.22;;
568;SDS011;269;48.884;9.192;2023-04-03T07:31:08;3.35;;;3.05;;
568;SDS011;269;48.884;9.192;2023-04-03T07:33:40;3.13;;;2.83;;
568;SDS011;269;48.884;9.192;2023-04-03T07:36:08;5.28;;;3.20;;
568;SDS011;269;48.884;9.192;2023-04-03T07:38:37;2.80;;;2.50;;
568;SDS011;269;48.884;9.192;2023-04-03T07:41:04;3.00;;;2.80;;
568;SDS011;269;48.884;9.192;2023-04-03T07:43:32;3.03;;;2.80;;
568;SDS011;269;48.884;9.192;2023-04-03T07:45:59;2.63;;;2.40;;
568;SDS011;269;48.884;9.192;2023-04-03T07:48:26;2.60;;;2.40;;
568;SDS011;269;48.884;9.192;2023-04-03T07:50:58;3.78;;;2.47;;
568;SDS011;269;48.884;9.192;2023-04-03T07:53:26;4.40;;;2.75;;
568;SDS011;269;48.884;9.192;2023-04-03T07:55:53;3.40;;;2.72;;
568;SDS011;269;48.884;9.192;2023-04-03T07:58:22;4.03;;;2.85;;
568;SDS011;269;48.884;9.192;2023-04-03T08:00:49;2.78;;;2.42;;
568;SDS011;269;48.884;9.192;2023-04-03T08:03:16;3.65;;;3.17;;
568;SDS011;269;48.884;9.192;2023-04-03T08:05:44;5.60;;;2.80;;
568;SDS011;269;48.884;9.192;2023-04-03T08:08:16;3.03;;;2.70;;
568;SDS011;269;48.884;9.192;2023-04-03T08:10:47;5.35;;;3.58;;
568;SDS011;269;48.884;9.192;2023-04-03T08:13:15;3.00;;;2.70;;
568;SDS011;269;48.884;9.192;2023-04-03T08:15:42;3.80;;;2.78;;
568;SDS011;269;48.884;9.192;2023-04-03T08:18:10;4.78;;;2.80;;
568;SDS011;269;48.884;9.192;2023-04-03T08:20:37;3.00;;;2.70;;
568;SDS011;269;48.884;9.192;2023-04-03T08:23:05;2.72;;;2.25;;
568;SDS011;269;48.884;9.192;2023-04-03T08:25:37;3.08;;;2.50;;
568;SDS011;269;48.884;9.192;2023-04-03T08:28:04;2.83;;;2.40;;
568;SDS011;269;48.884;9.192;2023-04-03T08:30:32;2.40;;;2.20;;
568;SDS011;269;48.884;9.192;2023-04-03T08:33:00;3.17;;;2.38;;
568;SDS011;269;48.884;9.192;2023-04-03T08:35:27;4.13;;;2.80;;
568;SDS011;269;48.884;9.192;2023-04-03T08:37:54;4.72;;;2.47;;
568;SDS011;269;48.884;9.192;2023-04-03T08:40:22;4.20;;;2.90;;
568;SDS011;269;48.884;9.192;2023-04-03T08:42:53;5.15;;;2.90;;
568;SDS011;269;48.884;9.192;2023-04-03T08:45:35;3.00;;;2.70;;
568;SDS011;269;48.884;9.192;2023-04-03T08:48:12;5.00;;;2.67;;
568;SDS011;269;48.884;9.192;2023-04-03T08:50:42;2.88;;;2.40;;
568;SDS011;269;48.884;9.192;2023-04-03T08:53:14;3.75;;;3.17;;
568;SDS011;269;48.884;9.192;2023-04-03T08:55:43;3.20;;;2.60;;
568;SDS011;269;48.884;9.192;2023-04-03T08:58:14;3.13;;;2.78;;
568;SDS011;269;48.884;9.192;2023-04-03T09:00:44;3.88;;;3.05;;
568;SDS011;269;48.884;9.192;2023-04-03T09:03:14;3.58;;;2.70;;
568;SDS011;269;48.884;9.192;2023-04-03T09:05:44;2.75;;;2.53;;
568;SDS011;269;48.884;9.192;2023-04-03T09:08:21;2.75;;;2.53;;
568;SDS011;269;48.884;9.192;2023-04-03T09:10:52;6.20;;;2.72;;
568;SDS011;269;48.884;9.192;2023-04-03T09:13:29;2.83;;;2.40;;
568;SDS011;269;48.884;9.192;2023-04-03T09:16:02;4.68;;;2.75;;
568;SDS011;269;48.884;9.192;2023-04-03T09:18:39;3.90;;;2.15;;
568;SDS011;269;48.884;9.192;2023-04-03T09:21:13;3.33;;;2.38;;
568;SDS011;269;48.884;9.192;2023-04-03T09:23:47;4.05;;;2.90;;
568;SDS011;269;48.884;9.192;2023-04-03T09:26:19;4.00;;;2.42;;
568;SDS011;269;48.884;9.192;2023-04-03T09:28:54;2.63;;;2.05;;
568;SDS011;269;48.884;9.192;2023-04-03T09:31:26;3.20;;;2.05;;
568;SDS011;269;48.884;9.192;2023-04-03T09:34:05;2.40;;;1.98;;
568;SDS011;269;48.884;9.192;2023-04-03T09:36:40;2.67;;;2.30;;
568;SDS011;269;48.884;9.192;2023-04-03T09:39:10;2.55;;;2.10;;
568;SDS011;269;48.884;9.192;2023-04-03T09:41:40;2.22;;;1.90;;
568;SDS011;269;48.884;9.192;2023-04-03T09:44:22;2.85;;;1.80;;
568;SDS011;269;48.884;9.192;2023-04-03T09:46:51;2.53;;;2.00;;
568;SDS011;269;48.884;9.192;2023-04-03T09:49:18;3.30;;;2.00;;
568;SDS011;269;48.884;9.192;2023-04-03T09:51:46;2.97;;;2.08;;
568;SDS011;269;48.884;9.192;2023-04-03T09:54:25;2.20;;;2.00;;
568;SDS011;269;48.884;9.192;2023-04-03T09:57:07;2.83;;;2.03;;
568;SDS011;269;48.884;9.192;2023-04-03T09:59:40;4.45;;;1.92;;
568;SDS011;269;48.884;9.192;2023-04-03T10:02:28;2.53;;;2.33;;
568;SDS011;269;48.884;9.192;2023-04-03T10:05:00;2.50;;;1.73;;
568;SDS011;269;48.884;9.192;2023-04-03T10:07:29;1.67;;;1.58;;
568;SDS011;269;48.884;9.192;2023-04-03T10:09:58;3.03;;;1.85;;
568;SDS011;269;48.884;9.192;2023-04-03T10:12:28;2.22;;;2.00;;
568;SDS011;269;48.884;9.192;2023-04-03T10:14:58;2.83;;;2.20;;
568;SDS011;269;48.884;9.192;2023-04-03T10:17:32;2.03;;;1.73;;
568;SDS011;269;48.884;9.192;2023-04-03T10:20:10;2.55;;;1.70;;
568;SDS011;269;48.884;9.192;2023-04-03T10:22:54;2.58;;;1.90;;
568;SDS011;269;48.884;9.192;2023-04-03T10:25:30;2.13;;;1.90;;
568;SDS011;269;48.884;9.192;2023-04-03T10:28:07;2.50;;;1.90;;
568;SDS011;269;48.884;9.192;2023-04-03T10:30:45;3.17;;;1.70;;
568;SDS011;269;48.884;9.192;2023-04-03T10:33:20;2.30;;;1.73;;
568;SDS011;269;48.884;9.192;2023-04-03T10:36:00;1.50;;;1.40;;
568;SDS011;269;48.884;9.192;2023-04-03T10:38:38;2.10;;;1.70;;
568;SDS011;269;48.884;9.192;2023-04-03T10:41:16;3.08;;;1.63;;
568;SDS011;269;48.884;9.192;2023-04-03T10:43:53;4.28;;;1.63;;
568;SDS011;269;48.884;9.192;2023-04-03T10:46:31;3.90;;;2.53;;
568;SDS011;269;48.884;9.192;2023-04-03T10:49:11;2.25;;;1.85;;
568;SDS011;269;48.884;9.192;2023-04-03T10:51:50;3.45;;;2.22;;
568;SDS011;269;48.884;9.192;2023-04-03T10:54:26;1.60;;;1.50;;
568;SDS011;269;48.884;9.192;2023-04-03T10:57:00;2.00;;;1.80;;
568;SDS011;269;48.884;9.192;2023-04-03T10:59:30;2.10;;;1.60;;
568;SDS011;269;48.884;9.192;2023-04-03T11:02:04;1.88;;;1.65;;
568;SDS011;269;48.884;9.192;2023-04-03T11:04:39;2.90;;;2.05;;
568;SDS011;269;48.884;9.192;2023-04-03T11:07:08;3.97;;;1.60;;
568;SDS011;269;48.884;9.192;2023-04-03T11:09:39;1.63;;;1.52;;
568;SDS011;269;48.884;9.192;2023-04-03T11:12:09;2.78;;;1.48;;
568;SDS011;269;48.884;9.192;2023-04-03T11:14:40;1.70;;;1.60;;
568;SDS011;269;48.884;9.192;2023-04-03T11:17:14;2.13;;;1.60;;
568;SDS011;269;48.884;9.192;2023-04-03T11:19:49;4.22;;;2.15;;
568;SDS011;269;48.884;9.192;2023-04-03T11:22:24;2.30;;;1.80;;
568;SDS011;269;48.884;9.192;2023-04-03T11:24:57;2.08;;;1.55;;
568;SDS011;269;48.884;9.192;2023-04-03T11:27:30;1.63;;;1.52;;
568;SDS011;269;48.884;9.192;2023-04-03T11:30:07;2.47;;;1.80;;
568;SDS011;269;48.884;9.192;2023-04-03T11:32:55;2.00;;;1.80;;
568;SDS011;269;48.884;9.192;2023-04-03T11:35:32;3.05;;;2.10;;
568;SDS011;269;48.884;9.192;2023-04-03T11:38:00;2.00;;;1.60;;
568;SDS011;269;48.884;9.192;2023-04-03T11:40:32;2.40;;;1.85;;
568;SDS011;269;48.884;9.192;2023-04-03T11:43:04;1.70;;;1.60;;
568;SDS011;269;48.884;9.192;2023-04-03T11:45:34;2.55;;;2.05;;
568;SDS011;269;48.884;9.192;2023-04-03T11:48:05;2.38;;;2.15;;
568;SDS011;269;48.884;9.192;2023-04-03T11:50:43;2.40;;;2.20;;
568;SDS011;269;48.884;9.192;2023-04-03T11:56:00;3.20;;;2.95;;
568;SDS011;269;48.884;9.192;2023-04-03T12:01:45;2.67;;;1.65;;
568;SDS011;269;48.884;9.192;2023-04-03T12:04:14;1.75;;;1.60;;
568;SDS011;269;48.884;9.192;2023-04-03T12:09:30;2.00;;;1.70;;
568;SDS011;269;48.884;9.192;2023-04-03T12:12:01;1.70;;;1.60;;
568;SDS011;269;48.884;9.192;2023-04-03T12:14:50;2.08;;;1.60;;
568;SDS011;269;48.884;9.192;2023-04-03T12:17:20;2.58;;;1.70;;
568;SDS011;269;48.884;9.192;2023-04-03T12:19:52;1.88;;;1.60;;
568;SDS011;269;48.884;9.192;2023-04-03T12:22:19;2.50;;;1.65;;
568;SDS011;269;48.884;9.192;2023-04-03T12:24:48;2.58;;;2.00;;
568;SDS011;269;48.884;9.192;2023-04-03T12:27:20;2.60;;;1.80;;
568;SDS011;269;48.884;9.192;2023-04-03T12:30:00;2.30;;;1.77;;
568;SDS011;269;48.884;9.192;2023-04-03T12:32:40;3.70;;;1.80;;
568;SDS011;269;48.884;9.192;2023-04-03T12:35:28;2.13;;;1.50;;
568;SDS011;269;48.884;9.192;2023-04-03T12:40:53;3.78;;;2.65;;
568;SDS011;269;48.884;9.192;2023-04-03T12:43:33;3.03;;;2.72;;
568;SDS011;269;48.884;9.192;2023-04-03T12:46:10;3.13;;;2.83;;
568;SDS011;269;48.884;9.192;2023-04-03T12:48:46;2.40;;;2.20;;
568;SDS011;269;48.884;9.192;2023-04-03T12:51:17;1.92;;;1.70;;
568;SDS011;269;48.884;9.192;2023-04-03T12:53:48;2.60;;;1.90;;
568;SDS011;269;48.884;9.192;2023-04-03T12:56:20;2.10;;;1.90;;
568;SDS011;269;48.884;9.192;2023-04-03T12:58:49;2.33;;;1.90;;
568;SDS011;269;48.884;9.192;2023-04-03T13:01:18;4.53;;;2.13;;
568;SDS011;269;48.884;9.192;2023-04-03T13:03:50;2.55;;;2.35;;
568;SDS011;269;48.884;9.192;2023-04-03T13:06:23;2.20;;;1.95;;
568;SDS011;269;48.884;9.192;2023-04-03T13:08:53;3.95;;;2.10;;
568;SDS011;269;48.884;9.192;2023-04-03T13:11:23;2.35;;;1.98;;
568;SDS011;269;48.884;9.192;2023-04-03T13:13:55;3.78;;;2.28;;
568;SDS011;269;48.884;9.192;2023-04-03T13:16:24;2.45;;;2.13;;
568;SDS011;269;48.884;9.192;2023-04-03T13:18:52;3.42;;;2.20;;
568;SDS011;269;48.884;9.192;2023-04-03T13:21:22;2.42;;;1.80;;
568;SDS011;269;48.884;9.192;2023-04-03T13:23:54;2.42;;;2.00;;
568;SDS011;269;48.884;9.192;2023-04-03T13:26:24;2.13;;;1.90;;
568;SDS011;269;48.884;9.192;2023-04-03T13:28:53;2.35;;;2.00;;
568;SDS011;269;48.884;9.192;2023-04-03T13:31:25;3.10;;;2.20;;
568;SDS011;269;48.884;9.192;2023-04-03T13:33:55;2.17;;;1.98;;
568;SDS011;269;48.884;9.192;2023-04-03T13:36:29;2.30;;;2.10;;
568;SDS011;269;48.884;9.192;2023-04-03T13:39:03;2.03;;;1.83;;
568;SDS011;269;48.884;9.192;2023-04-03T13:41:32;1.70;;;1.50;;
568;SDS011;269;48.884;9.192;2023-04-03T13:44:16;2.13;;;1.77;;
568;SDS011;269;48.884;9.192;2023-04-03T13:46:56;3.38;;;1.90;;
568;SDS011;269;48.884;9.192;2023-04-03T13:49:28;2.03;;;1.75;;
568;SDS011;269;48.884;9.192;2023-04-03T13:52:01;2.20;;;1.88;;
568;SDS011;269;48.884;9.192;2023-04-03T13:54:31;2.78;;;1.85;;
568;SDS011;269;48.884;9.192;2023-04-03T13:57:01;2.83;;;1.92;;
568;SDS011;269;48.884;9.192;2023-04-03T13:59:29;2.53;;;1.98;;
568;SDS011;269;48.884;9.192;2023-04-03T14:02:09;4.90;;;2.22;;
568;SDS011;269;48.884;9.192;2023-04-03T14:04:47;3.72;;;2.50;;
568;SDS011;269;48.884;9.192;2023-04-03T14:07:19;2.85;;;2.20;;
568;SDS011;269;48.884;9.192;2023-04-03T14:09:47;4.38;;;2.40;;
568;SDS011;269;48.884;9.192;2023-04-03T14:12:15;2.67;;;2.10;;
568;SDS011;269;48.884;9.192;2023-04-03T14:14:44;2.60;;;1.80;;
568;SDS011;269;48.884;9.192;2023-04-03T14:17:14;2.50;;;1.80;;
568;SDS011;269;48.884;9.192;2023-04-03T14:19:43;2.00;;;1.60;;
568;SDS011;269;48.884;9.192;2023-04-03T14:22:13;1.90;;;1.80;;
568;SDS011;269;48.884;9.192;2023-04-03T14:24:43;2.00;;;1.80;;
568;SDS011;269;48.884;9.192;2023-04-03T14:27:15;2.17;;;1.92;;
568;SDS011;269;48.884;9.192;2023-04-03T14:29:44;3.08;;;1.80;;
568;SDS011;269;48.884;9.192;2023-04-03T14:32:13;2.35;;;2.10;;
568;SDS011;269;48.884;9.192;2023-04-03T14:34:41;2.97;;;2.13;;
568;SDS011;269;48.884;9.192;2023-04-03T14:37:09;3.42;;;1.90;;
568;SDS011;269;48.884;9.192;2023-04-03T14:39:38;2.38;;;2.13;;
568;SDS011;269;48.884;9.192;2023-04-03T14:42:09;2.40;;;2.20;;
568;SDS011;269;48.884;9.192;2023-04-03T14:44:39;1.52;;;1.42;;
568;SDS011;269;48.884;9.192;2023-04-03T14:47:08;3.78;;;1.95;;
568;SDS011;269;48.884;9.192;2023-04-03T14:49:37;3.08;;;2.40;;
568;SDS011;269;48.884;9.192;2023-04-03T14:52:05;2.55;;;2.35;;
568;SDS011;269;48.884;9.192;2023-04-03T14:54:32;1.70;;;1.60;;
568;SDS011;269;48.884;9.192;2023-04-03T14:57:00;1.90;;;1.80;;
568;SDS011;269;48.884;9.192;2023-04-03T14:59:30;2.42;;;2.13;;
568;SDS011;269;48.884;9.192;2023-04-03T15:01:58;3.25;;;2.38;;
568;SDS011;269;48.884;9.192;2023-04-03T15:04:25;3.65;;;2.10;;
568;SDS011;269;48.884;9.192;2023-04-03T15:06:53;2.00;;;1.90;;
568;SDS011;269;48.884;9.192;2023-04-03T15:09:21;2.22;;;2.03;;
568;SDS011;269;48.884;9.192;2023-04-03T15:11:50;2.03;;;1.83;;
568;SDS011;269;48.884;9.192;2023-04-03T15:14:19;2.07;;;1.87;;
568;SDS011;269;48.884;9.192;2023-04-03T15:16:47;2.20;;;1.80;;
568;SDS011;269;48.884;9.192;2023-04-03T15:19:15;2.27;;;1.87;;
568;SDS011;269;48.884;9.192;2023-04-03T15:21:42;2.77;;;2.10;;
568;SDS011;269;48.884;9.192;2023-04-03T15:24:09;2.47;;;2.00;;
568;SDS011;269;48.884;9.192;2023-04-03T15:26:37;3.10;;;2.20;;
568;SDS011;269;48.884;9.192;2023-04-03T15:29:05;2.50;;;2.00;;
568;SDS011;269;48.884;9.192;2023-04-03T15:31:32;3.00;;;1.85;;
568;SDS011;269;48.884;9.192;2023-04-03T15:34:01;3.20;;;1.90;;
568;SDS011;269;48.884;9.192;2023-04-03T15:36:29;2.15;;;1.98;;
568;SDS011;269;48.884;9.192;2023-04-03T15:38:56;2.07;;;1.87;;
568;SDS011;269;48.884;9.192;2023-04-03T15:41:23;1.90;;;1.80;;
568;SDS011;269;48.884;9.192;2023-04-03T15:43:51;2.40;;;1.87;;
568;SDS011;269;48.884;9.192;2023-04-03T15:46:17;1.90;;;1.77;;
568;SDS011;269;48.884;9.192;2023-04-03T15:48:44;2.57;;;1.97;;
568;SDS011;269;48.884;9.192;2023-04-03T15:51:13;2.20;;;1.83;;
568;SDS011;269;48.884;9.192;2023-04-03T15:53:40;1.80;;;1.70;;
568;SDS011;269;48.884;9.192;2023-04-03T15:56:07;2.63;;;2.07;;
568;SDS011;269;48.884;9.192;2023-04-03T15:58:35;2.17;;;2.03;;
568;SDS011;269;48.884;9.192;2023-04-03T16:01:02;3.55;;;1.90;;
568;SDS011;269;48.884;9.192;2023-04-03T16:03:29;2.55;;;1.75;;
568;SDS011;269;48.884;9.192;2023-04-03T16:05:57;3.03;;;2.20;;
568;SDS011;269;48.884;9.192;2023-04-03T16:08:25;2.45;;;1.98;;
568;SDS011;269;48.884;9.192;2023-04-03T16:10:53;2.47;;;2.28;;
568;SDS011;269;48.884;9.192;2023-04-03T16:13:20;2.10;;;1.90;;
568;SDS011;269;48.884;9.192;2023-04-03T16:15:47;2.08;;;1.95;;